sensor_id;sensor_type;location;lat;lon;timestamp;pressure;altitude;pressure_sealevel;temperature;humidity
78206;BME280;67480;48.920;12.880;2023-05-07T00:02:20;97052.13;;;14.84;52.83
78206;BME280;67480;48.920;12.880;2023-05-07T00:04:46;97050.47;;;14.79;52.76
78206;BME280;67480;48.920;12.880;2023-05-07T00:07:11;97054.72;;;14.80;52.60
78206;BME280;67480;48.920;12.880;2023-05-07T00:09:36;97049.31;;;14.80;52.49
78206;BME280;67480;48.920;12.880;2023-05-07T00:12:02;97050.22;;;14.84;52.34
78206;BME280;67480;48.920;12.880;2023-05-07T00:14:27;97052.59;;;14.73;52.48
78206;BME280;67480;48.920;12.880;2023-05-07T00:16:52;97059.16;;;14.72;52.61
78206;BME280;67480;48.920;12.880;2023-05-07T00:19:18;97062.75;;;14.77;52.58
78206;BME280;67480;48.920;12.880;2023-05-07T00:21:43;97061.06;;;14.60;52.79
78206;BME280;67480;48.920;12.880;2023-05-07T00:24:08;97062.84;;;14.43;53.14
78206;BME280;67480;48.920;12.880;2023-05-07T00:26:34;97065.09;;;14.08;54.19
78206;BME280;67480;48.920;12.880;2023-05-07T00:28:59;97060.03;;;14.06;54.49
78206;BME280;67480;48.920;12.880;2023-05-07T00:31:25;97061.03;;;14.02;55.13
78206;BME280;67480;48.920;12.880;2023-05-07T00:33:50;97059.34;;;13.76;55.45
78206;BME280;67480;48.920;12.880;2023-05-07T00:36:16;97067.59;;;13.58;55.58
78206;BME280;67480;48.920;12.880;2023-05-07T00:38:41;97069.72;;;13.53;56.23
78206;BME280;67480;48.920;12.880;2023-05-07T00:41:06;97067.88;;;13.66;55.74
78206;BME280;67480;48.920;12.880;2023-05-07T00:43:32;97073.31;;;13.78;55.49
78206;BME280;67480;48.920;12.880;2023-05-07T00:45:57;97061.06;;;13.80;55.35
78206;BME280;67480;48.920;12.880;2023-05-07T00:48:23;97058.47;;;13.84;55.38
78206;BME280;67480;48.920;12.880;2023-05-07T00:50:49;97063.63;;;13.77;55.34
78206;BME280;67480;48.920;12.880;2023-05-07T00:53:15;97061.59;;;13.74;55.63
78206;BME280;67480;48.920;12.880;2023-05-07T00:55:40;97058.16;;;13.65;56.11
78206;BME280;67480;48.920;12.880;2023-05-07T00:58:06;97057.50;;;13.68;55.89
78206;BME280;67480;48.920;12.880;2023-05-07T01:00:31;97059.63;;;13.62;55.93
78206;BME280;67480;48.920;12.880;2023-05-07T01:02:57;97049.84;;;13.70;55.74
78206;BME280;67480;48.920;12.880;2023-05-07T01:05:24;97060.81;;;13.73;55.29
78206;BME280;67480;48.920;12.880;2023-05-07T01:07:51;97057.50;;;13.68;55.69
78206;BME280;67480;48.920;12.880;2023-05-07T01:10:18;97050.38;;;13.63;55.63
78206;BME280;67480;48.920;12.880;2023-05-07T01:12:44;97053.91;;;13.42;56.48
78206;BME280;67480;48.920;12.880;2023-05-07T01:15:10;97056.44;;;13.39;56.74
78206;BME280;67480;48.920;12.880;2023-05-07T01:17:39;97059.69;;;13.32;56.83
78206;BME280;67480;48.920;12.880;2023-05-07T01:20:05;97054.56;;;13.39;56.36
78206;BME280;67480;48.920;12.880;2023-05-07T01:22:36;97054.59;;;13.31;56.66
78206;BME280;67480;48.920;12.880;2023-05-07T01:25:03;97059.84;;;13.36;56.49
78206;BME280;67480;48.920;12.880;2023-05-07T01:27:29;97066.22;;;13.31;56.62
78206;BME280;67480;48.920;12.880;2023-05-07T01:29:54;97067.13;;;13.35;56.41
78206;BME280;67480;48.920;12.880;2023-05-07T01:32:24;97070.03;;;13.30;56.46
78206;BME280;67480;48.920;12.880;2023-05-07T01:34:51;97072.97;;;13.16;56.71
78206;BME280;67480;48.920;12.880;2023-05-07T01:37:17;97066.91;;;13.19;56.72
78206;BME280;67480;48.920;12.880;2023-05-07T01:39:43;97065.59;;;13.25;56.64
78206;BME280;67480;48.920;12.880;2023-05-07T01:42:08;97065.28;;;13.27;56.63
78206;BME280;67480;48.920;12.880;2023-05-07T01:44:34;97072.44;;;13.23;56.48
78206;BME280;67480;48.920;12.880;2023-05-07T01:47:01;97070.84;;;13.22;56.78
78206;BME280;67480;48.920;12.880;2023-05-07T01:49:27;97064.50;;;13.26;56.55
78206;BME280;67480;48.920;12.880;2023-05-07T01:51:52;97067.97;;;13.27;56.36
78206;BME280;67480;48.920;12.880;2023-05-07T01:54:18;97066.88;;;13.28;56.28
78206;BME280;67480;48.920;12.880;2023-05-07T01:56:43;97064.81;;;13.25;56.31
78206;BME280;67480;48.920;12.880;2023-05-07T01:59:09;97057.75;;;13.12;56.60
78206;BME280;67480;48.920;12.880;2023-05-07T02:01:34;97063.34;;;13.06;56.71
78206;BME280;67480;48.920;12.880;2023-05-07T02:03:59;97054.41;;;13.06;56.88
78206;BME280;67480;48.920;12.880;2023-05-07T02:06:25;97058.91;;;13.02;56.91
78206;BME280;67480;48.920;12.880;2023-05-07T02:08:50;97057.63;;;12.99;57.03
78206;BME280;67480;48.920;12.880;2023-05-07T02:11:16;97058.28;;;12.96;57.25
78206;BME280;67480;48.920;12.880;2023-05-07T02:13:42;97058.09;;;13.01;57.05
78206;BME280;67480;48.920;12.880;2023-05-07T02:16:07;97061.94;;;13.00;57.14
78206;BME280;67480;48.920;12.880;2023-05-07T02:18:33;97061.75;;;13.05;56.97
78206;BME280;67480;48.920;12.880;2023-05-07T02:20:58;97059.03;;;13.05;56.95
78206;BME280;67480;48.920;12.880;2023-05-07T02:23:23;97065.72;;;13.08;56.56
78206;BME280;67480;48.920;12.880;2023-05-07T02:25:49;97062.06;;;13.04;56.93
78206;BME280;67480;48.920;12.880;2023-05-07T02:28:15;97070.38;;;12.99;57.27
78206;BME280;67480;48.920;12.880;2023-05-07T02:30:40;97064.97;;;12.99;56.94
78206;BME280;67480;48.920;12.880;2023-05-07T02:33:05;97068.81;;;12.89;57.44
78206;BME280;67480;48.920;12.880;2023-05-07T02:35:32;97061.69;;;12.84;57.41
78206;BME280;67480;48.920;12.880;2023-05-07T02:37:57;97060.44;;;12.82;57.84
78206;BME280;67480;48.920;12.880;2023-05-07T02:40:23;97060.00;;;13.01;57.17
78206;BME280;67480;48.920;12.880;2023-05-07T02:42:48;97047.16;;;12.98;56.89
78206;BME280;67480;48.920;12.880;2023-05-07T02:45:13;97050.06;;;12.93;56.99
78206;BME280;67480;48.920;12.880;2023-05-07T02:47:39;97047.69;;;12.91;56.98
78206;BME280;67480;48.920;12.880;2023-05-07T02:50:05;97051.31;;;12.95;56.97
78206;BME280;67480;48.920;12.880;2023-05-07T02:52:31;97047.72;;;12.82;57.00
78206;BME280;67480;48.920;12.880;2023-05-07T02:54:56;97046.94;;;12.82;57.12
78206;BME280;67480;48.920;12.880;2023-05-07T02:57:21;97053.69;;;12.67;57.70
78206;BME280;67480;48.920;12.880;2023-05-07T02:59:47;97051.56;;;12.43;58.52
78206;BME280;67480;48.920;12.880;2023-05-07T03:02:12;97054.09;;;12.39;58.54
78206;BME280;67480;48.920;12.880;2023-05-07T03:04:39;97052.81;;;12.45;58.24
78206;BME280;67480;48.920;12.880;2023-05-07T03:07:04;97050.56;;;12.56;57.88
78206;BME280;67480;48.920;12.880;2023-05-07T03:09:30;97052.97;;;12.49;58.14
78206;BME280;67480;48.920;12.880;2023-05-07T03:11:56;97058.78;;;12.60;57.31
78206;BME280;67480;48.920;12.880;2023-05-07T03:14:21;97057.72;;;12.52;57.98
78206;BME280;67480;48.920;12.880;2023-05-07T03:16:46;97058.84;;;12.51;58.13
78206;BME280;67480;48.920;12.880;2023-05-07T03:19:12;97057.72;;;12.52;57.99
78206;BME280;67480;48.920;12.880;2023-05-07T03:21:37;97057.72;;;12.52;58.03
78206;BME280;67480;48.920;12.880;2023-05-07T03:24:02;97056.94;;;12.51;57.98
78206;BME280;67480;48.920;12.880;2023-05-07T03:26:28;97051.66;;;12.55;58.06
78206;BME280;67480;48.920;12.880;2023-05-07T03:28:54;97058.06;;;12.42;58.58
78206;BME280;67480;48.920;12.880;2023-05-07T03:31:20;97061.88;;;12.41;58.32
78206;BME280;67480;48.920;12.880;2023-05-07T03:33:53;97050.75;;;12.42;58.11
78206;BME280;67480;48.920;12.880;2023-05-07T03:36:19;97061.69;;;12.46;58.08
78206;BME280;67480;48.920;12.880;2023-05-07T03:38:45;97061.09;;;12.40;58.20
78206;BME280;67480;48.920;12.880;2023-05-07T03:41:10;97058.25;;;12.28;59.03
78206;BME280;67480;48.920;12.880;2023-05-07T03:43:35;97055.06;;;12.34;59.07
78206;BME280;67480;48.920;12.880;2023-05-07T03:46:00;97053.97;;;12.35;58.73
78206;BME280;67480;48.920;12.880;2023-05-07T03:48:26;97062.06;;;12.35;58.63
78206;BME280;67480;48.920;12.880;2023-05-07T03:50:51;97054.59;;;12.41;58.65
78206;BME280;67480;48.920;12.880;2023-05-07T03:53:16;97058.41;;;12.40;58.91
78206;BME280;67480;48.920;12.880;2023-05-07T03:55:42;97057.75;;;12.34;58.71
78206;BME280;67480;48.920;12.880;2023-05-07T03:58:07;97058.25;;;12.37;58.58
78206;BME280;67480;48.920;12.880;2023-05-07T04:00:32;97061.91;;;12.32;59.02
78206;BME280;67480;48.920;12.880;2023-05-07T04:03:02;97062.75;;;12.06;59.60
78206;BME280;67480;48.920;12.880;2023-05-07T04:05:28;97056.22;;;12.25;58.90
78206;BME280;67480;48.920;12.880;2023-05-07T04:07:54;97059.25;;;12.14;59.34
78206;BME280;67480;48.920;12.880;2023-05-07T04:10:19;97058.28;;;12.19;59.39
78206;BME280;67480;48.920;12.880;2023-05-07T04:12:45;97068.47;;;12.13;59.44
78206;BME280;67480;48.920;12.880;2023-05-07T04:15:10;97068.47;;;12.13;59.27
78206;BME280;67480;48.920;12.880;2023-05-07T04:17:35;97067.66;;;12.13;59.52
78206;BME280;67480;48.920;12.880;2023-05-07T04:20:00;97065.63;;;12.10;59.85
78206;BME280;67480;48.920;12.880;2023-05-07T04:22:26;97078.28;;;12.18;59.58
78206;BME280;67480;48.920;12.880;2023-05-07T04:24:51;97069.69;;;12.33;59.22
78206;BME280;67480;48.920;12.880;2023-05-07T04:27:17;97081.59;;;12.41;59.34
78206;BME280;67480;48.920;12.880;2023-05-07T04:29:42;97084.06;;;12.55;59.05
78206;BME280;67480;48.920;12.880;2023-05-07T04:32:09;97081.63;;;12.24;59.68
78206;BME280;67480;48.920;12.880;2023-05-07T04:34:34;97087.81;;;12.33;59.40
78206;BME280;67480;48.920;12.880;2023-05-07T04:37:00;97093.94;;;12.42;59.53
78206;BME280;67480;48.920;12.880;2023-05-07T04:39:25;97093.34;;;12.37;58.93
78206;BME280;67480;48.920;12.880;2023-05-07T04:41:50;97090.31;;;12.38;59.04
78206;BME280;67480;48.920;12.880;2023-05-07T04:44:16;97099.06;;;12.35;59.12
78206;BME280;67480;48.920;12.880;2023-05-07T04:46:41;97090.00;;;12.40;58.86
78206;BME280;67480;48.920;12.880;2023-05-07T04:49:07;97082.88;;;12.26;59.92
78206;BME280;67480;48.920;12.880;2023-05-07T04:51:32;97097.81;;;12.24;60.66
78206;BME280;67480;48.920;12.880;2023-05-07T04:53:58;97082.69;;;12.40;60.11
78206;BME280;67480;48.920;12.880;2023-05-07T04:56:23;97094.91;;;12.38;60.94
78206;BME280;67480;48.920;12.880;2023-05-07T04:58:48;97096.63;;;12.51;60.37
78206;BME280;67480;48.920;12.880;2023-05-07T05:01:13;97090.81;;;12.70;59.81
78206;BME280;67480;48.920;12.880;2023-05-07T05:03:39;97093.34;;;12.75;59.96
78206;BME280;67480;48.920;12.880;2023-05-07T05:06:04;97102.66;;;12.86;60.08
78206;BME280;67480;48.920;12.880;2023-05-07T05:08:30;97097.31;;;12.78;60.66
78206;BME280;67480;48.920;12.880;2023-05-07T05:10:56;97104.72;;;12.89;60.41
78206;BME280;67480;48.920;12.880;2023-05-07T05:13:21;97109.91;;;13.03;60.13
78206;BME280;67480;48.920;12.880;2023-05-07T05:15:46;97106.63;;;13.19;59.87
78206;BME280;67480;48.920;12.880;2023-05-07T05:18:12;97100.50;;;13.10;59.77
78206;BME280;67480;48.920;12.880;2023-05-07T05:20:37;97112.19;;;13.22;59.64
78206;BME280;67480;48.920;12.880;2023-05-07T05:23:02;97110.97;;;13.11;59.98
78206;BME280;67480;48.920;12.880;2023-05-07T05:25:28;97115.88;;;13.18;59.96
78206;BME280;67480;48.920;12.880;2023-05-07T05:27:53;97122.53;;;13.29;59.77
78206;BME280;67480;48.920;12.880;2023-05-07T05:30:18;97124.88;;;13.31;58.86
78206;BME280;67480;48.920;12.880;2023-05-07T05:32:44;97124.88;;;13.31;59.10
78206;BME280;67480;48.920;12.880;2023-05-07T05:35:09;97126.25;;;13.46;59.27
78206;BME280;67480;48.920;12.880;2023-05-07T05:37:35;97130.69;;;13.41;58.65
78206;BME280;67480;48.920;12.880;2023-05-07T05:40:00;97127.13;;;13.29;59.62
78206;BME280;67480;48.920;12.880;2023-05-07T05:42:25;97130.56;;;13.38;59.49
78206;BME280;67480;48.920;12.880;2023-05-07T05:44:51;97124.56;;;13.53;59.37
78206;BME280;67480;48.920;12.880;2023-05-07T05:47:16;97131.78;;;13.49;59.16
78206;BME280;67480;48.920;12.880;2023-05-07T05:49:41;97125.22;;;13.50;59.62
78206;BME280;67480;48.920;12.880;2023-05-07T05:52:08;97129.00;;;13.58;59.70
78206;BME280;67480;48.920;12.880;2023-05-07T05:54:33;97125.13;;;13.68;59.47
78206;BME280;67480;48.920;12.880;2023-05-07T05:56:59;97123.81;;;13.74;59.01
78206;BME280;67480;48.920;12.880;2023-05-07T05:59:24;97127.81;;;13.89;58.77
78206;BME280;67480;48.920;12.880;2023-05-07T06:01:50;97130.59;;;14.01;58.44
78206;BME280;67480;48.920;12.880;2023-05-07T06:04:15;97127.69;;;14.06;58.23
78206;BME280;67480;48.920;12.880;2023-05-07T06:06:41;97119.75;;;14.01;58.60
78206;BME280;67480;48.920;12.880;2023-05-07T06:09:06;97126.59;;;14.20;58.24
78206;BME280;67480;48.920;12.880;2023-05-07T06:11:32;97122.47;;;14.34;58.19
78206;BME280;67480;48.920;12.880;2023-05-07T06:13:57;97122.88;;;14.45;58.00
78206;BME280;67480;48.920;12.880;2023-05-07T06:16:24;97131.66;;;14.54;57.73
78206;BME280;67480;48.920;12.880;2023-05-07T06:18:50;97127.44;;;14.78;57.35
78206;BME280;67480;48.920;12.880;2023-05-07T06:21:15;97131.16;;;14.61;57.69
78206;BME280;67480;48.920;12.880;2023-05-07T06:23:40;97130.94;;;14.91;57.43
78206;BME280;67480;48.920;12.880;2023-05-07T06:26:06;97126.19;;;14.88;57.57
78206;BME280;67480;48.920;12.880;2023-05-07T06:28:32;97126.78;;;15.06;57.39
78206;BME280;67480;48.920;12.880;2023-05-07T06:31:18;97138.97;;;15.00;56.17
78206;BME280;67480;48.920;12.880;2023-05-07T06:33:48;97134.56;;;15.07;55.82
78206;BME280;67480;48.920;12.880;2023-05-07T06:36:14;97136.03;;;15.30;56.94
78206;BME280;67480;48.920;12.880;2023-05-07T06:38:39;97134.78;;;15.27;56.96
78206;BME280;67480;48.920;12.880;2023-05-07T06:41:06;97131.41;;;15.42;56.50
78206;BME280;67480;48.920;12.880;2023-05-07T06:43:31;97137.50;;;15.52;55.67
78206;BME280;67480;48.920;12.880;2023-05-07T06:45:56;97132.56;;;15.41;56.78
78206;BME280;67480;48.920;12.880;2023-05-07T06:48:22;97144.84;;;15.39;56.39
78206;BME280;67480;48.920;12.880;2023-05-07T06:50:47;97144.94;;;15.67;56.46
78206;BME280;67480;48.920;12.880;2023-05-07T06:53:12;97151.41;;;15.50;57.06
78206;BME280;67480;48.920;12.880;2023-05-07T06:55:38;97155.50;;;15.85;56.67
78206;BME280;67480;48.920;12.880;2023-05-07T06:58:03;97159.56;;;15.91;57.04
78206;BME280;67480;48.920;12.880;2023-05-07T07:00:29;97163.63;;;16.25;56.50
78206;BME280;67480;48.920;12.880;2023-05-07T07:02:55;97161.09;;;16.45;55.61
78206;BME280;67480;48.920;12.880;2023-05-07T07:05:20;97162.38;;;16.79;54.69
78206;BME280;67480;48.920;12.880;2023-05-07T07:07:45;97163.53;;;16.78;54.80
78206;BME280;67480;48.920;12.880;2023-05-07T07:10:20;97163.63;;;16.98;55.52
78206;BME280;67480;48.920;12.880;2023-05-07T07:12:46;97167.72;;;17.23;54.38
78206;BME280;67480;48.920;12.880;2023-05-07T07:15:11;97158.88;;;16.95;53.44
78206;BME280;67480;48.920;12.880;2023-05-07T07:17:36;97164.22;;;17.07;54.73
78206;BME280;67480;48.920;12.880;2023-05-07T07:20:02;97173.34;;;16.99;54.22
78206;BME280;67480;48.920;12.880;2023-05-07T07:22:28;97164.91;;;17.20;53.22
78206;BME280;67480;48.920;12.880;2023-05-07T07:24:53;97167.72;;;17.23;50.93
78206;BME280;67480;48.920;12.880;2023-05-07T07:27:19;97165.38;;;17.06;52.59
78206;BME280;67480;48.920;12.880;2023-05-07T07:29:44;97172.03;;;16.77;52.30
78206;BME280;67480;48.920;12.880;2023-05-07T07:32:10;97171.59;;;17.06;50.13
78206;BME280;67480;48.920;12.880;2023-05-07T07:34:35;97170.19;;;17.13;50.99
78206;BME280;67480;48.920;12.880;2023-05-07T07:37:01;97170.63;;;17.15;50.53
78206;BME280;67480;48.920;12.880;2023-05-07T07:39:30;97173.78;;;17.17;50.68
78206;BME280;67480;48.920;12.880;2023-05-07T07:41:56;97162.38;;;17.11;51.55
78206;BME280;67480;48.920;12.880;2023-05-07T07:44:21;97162.00;;;17.60;50.58
78206;BME280;67480;48.920;12.880;2023-05-07T07:46:47;97169.66;;;17.55;50.33
78206;BME280;67480;48.920;12.880;2023-05-07T07:49:12;97163.97;;;17.28;50.93
78206;BME280;67480;48.920;12.880;2023-05-07T07:51:37;97172.00;;;17.92;50.06
78206;BME280;67480;48.920;12.880;2023-05-07T07:54:03;97178.31;;;18.54;49.08
78206;BME280;67480;48.920;12.880;2023-05-07T07:56:28;97171.03;;;19.28;47.62
78206;BME280;67480;48.920;12.880;2023-05-07T07:58:54;97182.56;;;19.71;47.22
78206;BME280;67480;48.920;12.880;2023-05-07T08:01:19;97180.16;;;20.23;44.91
78206;BME280;67480;48.920;12.880;2023-05-07T08:03:44;97177.44;;;20.23;43.65
78206;BME280;67480;48.920;12.880;2023-05-07T08:06:10;97179.59;;;20.74;43.61
78206;BME280;67480;48.920;12.880;2023-05-07T08:08:35;97180.03;;;21.21;41.99
78206;BME280;67480;48.920;12.880;2023-05-07T08:11:01;97187.94;;;21.93;41.07
78206;BME280;67480;48.920;12.880;2023-05-07T08:13:26;97190.69;;;23.09;40.48
78206;BME280;67480;48.920;12.880;2023-05-07T08:15:51;97193.44;;;23.78;37.70
78206;BME280;67480;48.920;12.880;2023-05-07T08:18:17;97197.38;;;23.59;37.25
78206;BME280;67480;48.920;12.880;2023-05-07T08:20:43;97195.78;;;23.18;37.99
78206;BME280;67480;48.920;12.880;2023-05-07T08:23:08;97202.00;;;24.09;37.91
78206;BME280;67480;48.920;12.880;2023-05-07T08:25:34;97192.72;;;24.66;35.94
78206;BME280;67480;48.920;12.880;2023-05-07T08:27:59;97189.28;;;25.66;34.16
78206;BME280;67480;48.920;12.880;2023-05-07T08:30:25;97194.94;;;26.86;32.30
78206;BME280;67480;48.920;12.880;2023-05-07T08:32:50;97189.47;;;28.05;30.74
78206;BME280;67480;48.920;12.880;2023-05-07T08:35:15;97196.47;;;27.18;29.88
78206;BME280;67480;48.920;12.880;2023-05-07T08:37:41;97190.38;;;27.27;31.29
78206;BME280;67480;48.920;12.880;2023-05-07T08:40:06;97191.91;;;26.81;31.88
78206;BME280;67480;48.920;12.880;2023-05-07T08:42:35;97198.34;;;27.72;31.31
78206;BME280;67480;48.920;12.880;2023-05-07T08:45:02;97203.72;;;27.36;29.88
78206;BME280;67480;48.920;12.880;2023-05-07T08:47:43;97190.53;;;25.06;32.74
78206;BME280;67480;48.920;12.880;2023-05-07T08:50:11;97200.69;;;24.42;34.63
78206;BME280;67480;48.920;12.880;2023-05-07T08:52:36;97198.94;;;23.78;36.81
78206;BME280;67480;48.920;12.880;2023-05-07T08:55:02;97195.69;;;24.12;35.95
78206;BME280;67480;48.920;12.880;2023-05-07T08:57:28;97197.25;;;24.13;36.48
78206;BME280;67480;48.920;12.880;2023-05-07T08:59:53;97189.78;;;24.28;36.96
78206;BME280;67480;48.920;12.880;2023-05-07T09:02:18;97189.94;;;24.80;35.32
78206;BME280;67480;48.920;12.880;2023-05-07T09:04:44;97195.59;;;25.15;33.43
78206;BME280;67480;48.920;12.880;2023-05-07T09:07:09;97193.72;;;24.12;36.16
78206;BME280;67480;48.920;12.880;2023-05-07T09:09:35;97193.47;;;23.60;36.20
78206;BME280;67480;48.920;12.880;2023-05-07T09:12:00;97198.00;;;22.51;38.20
78206;BME280;67480;48.920;12.880;2023-05-07T09:14:27;97193.78;;;21.91;39.29
78206;BME280;67480;48.920;12.880;2023-05-07T09:16:52;97206.97;;;21.64;40.53
78206;BME280;67480;48.920;12.880;2023-05-07T09:19:22;97202.16;;;21.50;40.93
78206;BME280;67480;48.920;12.880;2023-05-07T09:21:48;97196.75;;;21.13;42.59
78206;BME280;67480;48.920;12.880;2023-05-07T09:24:15;97201.19;;;20.87;43.49
78206;BME280;67480;48.920;12.880;2023-05-07T09:26:41;97203.78;;;22.28;40.28
78206;BME280;67480;48.920;12.880;2023-05-07T09:29:07;97209.94;;;23.60;37.77
78206;BME280;67480;48.920;12.880;2023-05-07T09:31:36;97200.84;;;23.92;38.20
78206;BME280;67480;48.920;12.880;2023-05-07T09:34:04;97209.28;;;22.32;38.97
78206;BME280;67480;48.920;12.880;2023-05-07T09:36:31;97202.81;;;21.88;40.25
78206;BME280;67480;48.920;12.880;2023-05-07T09:38:59;97200.00;;;24.13;37.88
78206;BME280;67480;48.920;12.880;2023-05-07T09:41:25;97204.00;;;25.87;33.81
78206;BME280;67480;48.920;12.880;2023-05-07T09:43:54;97205.63;;;27.39;32.70
78206;BME280;67480;48.920;12.880;2023-05-07T09:46:25;97207.94;;;26.58;31.30
78206;BME280;67480;48.920;12.880;2023-05-07T09:48:52;97205.00;;;25.70;33.48
78206;BME280;67480;48.920;12.880;2023-05-07T09:51:24;97199.34;;;25.80;32.38
78206;BME280;67480;48.920;12.880;2023-05-07T09:53:52;97209.19;;;28.27;30.93
78206;BME280;67480;48.920;12.880;2023-05-07T09:56:19;97203.13;;;28.72;30.17
78206;BME280;67480;48.920;12.880;2023-05-07T09:58:45;97197.47;;;26.77;32.24
78206;BME280;67480;48.920;12.880;2023-05-07T10:01:11;97190.19;;;26.60;32.70
78206;BME280;67480;48.920;12.880;2023-05-07T10:03:39;97174.94;;;24.88;34.86
78206;BME280;67480;48.920;12.880;2023-05-07T10:06:05;97178.94;;;24.69;34.93
78206;BME280;67480;48.920;12.880;2023-05-07T10:08:31;97186.31;;;24.90;36.25
78206;BME280;67480;48.920;12.880;2023-05-07T10:10:56;97184.31;;;24.98;35.80
78206;BME280;67480;48.920;12.880;2023-05-07T10:13:22;97179.41;;;25.20;34.38
78206;BME280;67480;48.920;12.880;2023-05-07T10:15:48;97175.34;;;25.36;34.47
78206;BME280;67480;48.920;12.880;2023-05-07T10:18:15;97177.44;;;25.21;35.67
78206;BME280;67480;48.920;12.880;2023-05-07T10:20:42;97180.75;;;25.50;34.65
78206;BME280;67480;48.920;12.880;2023-05-07T10:23:09;97181.66;;;24.73;34.74
78206;BME280;67480;48.920;12.880;2023-05-07T10:25:37;97172.09;;;24.99;34.86
78206;BME280;67480;48.920;12.880;2023-05-07T10:28:06;97172.41;;;24.45;35.67
78206;BME280;67480;48.920;12.880;2023-05-07T10:31:01;97170.59;;;23.99;36.81
78206;BME280;67480;48.920;12.880;2023-05-07T10:33:31;97175.63;;;24.26;35.96
78206;BME280;67480;48.920;12.880;2023-05-07T10:36:00;97179.81;;;24.52;34.69
78206;BME280;67480;48.920;12.880;2023-05-07T10:38:28;97173.59;;;25.56;34.31
78206;BME280;67480;48.920;12.880;2023-05-07T10:40:53;97181.69;;;26.78;32.53
78206;BME280;67480;48.920;12.880;2023-05-07T10:43:19;97174.03;;;27.63;30.51
78206;BME280;67480;48.920;12.880;2023-05-07T10:46:37;97177.38;;;26.11;31.62
78206;BME280;67480;48.920;12.880;2023-05-07T10:51:30;97165.47;;;26.18;33.07
78206;BME280;67480;48.920;12.880;2023-05-07T10:56:40;97166.63;;;25.44;32.14
78206;BME280;67480;48.920;12.880;2023-05-07T11:02:03;97164.16;;;24.42;35.79
78206;BME280;67480;48.920;12.880;2023-05-07T11:04:31;97157.28;;;24.79;35.49
78206;BME280;67480;48.920;12.880;2023-05-07T11:09:59;97151.09;;;24.56;35.11
78206;BME280;67480;48.920;12.880;2023-05-07T11:15:01;97155.97;;;24.98;35.45
78206;BME280;67480;48.920;12.880;2023-05-07T11:17:27;97150.59;;;25.32;34.56
78206;BME280;67480;48.920;12.880;2023-05-07T11:19:55;97149.75;;;25.39;34.57
78206;BME280;67480;48.920;12.880;2023-05-07T11:25:04;97150.69;;;24.62;35.25
78206;BME280;67480;48.920;12.880;2023-05-07T11:27:31;97148.19;;;25.79;33.51
78206;BME280;67480;48.920;12.880;2023-05-07T11:29:56;97153.28;;;27.52;32.38
78206;BME280;67480;48.920;12.880;2023-05-07T11:32:23;97153.03;;;28.83;29.56
78206;BME280;67480;48.920;12.880;2023-05-07T11:34:51;97147.44;;;29.03;28.65
78206;BME280;67480;48.920;12.880;2023-05-07T11:37:17;97155.59;;;28.57;29.15
78206;BME280;67480;48.920;12.880;2023-05-07T11:39:43;97161.47;;;28.59;29.38
78206;BME280;67480;48.920;12.880;2023-05-07T11:42:34;97152.22;;;29.19;27.86
78206;BME280;67480;48.920;12.880;2023-05-07T11:45:01;97148.84;;;28.38;28.69
78206;BME280;67480;48.920;12.880;2023-05-07T11:47:30;97154.56;;;26.42;31.88
78206;BME280;67480;48.920;12.880;2023-05-07T11:49:55;97151.44;;;26.67;31.92
78206;BME280;67480;48.920;12.880;2023-05-07T11:52:23;97146.75;;;28.06;30.74
78206;BME280;67480;48.920;12.880;2023-05-07T11:54:58;97148.09;;;27.97;29.12
78206;BME280;67480;48.920;12.880;2023-05-07T11:57:25;97147.59;;;28.23;28.40
78206;BME280;67480;48.920;12.880;2023-05-07T11:59:58;97144.19;;;27.04;29.71
78206;BME280;67480;48.920;12.880;2023-05-07T12:02:24;97153.19;;;27.08;31.86
78206;BME280;67480;48.920;12.880;2023-05-07T12:04:53;97141.00;;;28.73;29.53
78206;BME280;67480;48.920;12.880;2023-05-07T12:07:20;97139.44;;;28.88;27.63
78206;BME280;67480;48.920;12.880;2023-05-07T12:09:45;97144.88;;;30.71;26.04
78206;BME280;67480;48.920;12.880;2023-05-07T12:12:12;97150.69;;;32.61;23.40
78206;BME280;67480;48.920;12.880;2023-05-07T12:14:41;97151.59;;;31.35;25.03
78206;BME280;67480;48.920;12.880;2023-05-07T12:17:11;97142.09;;;29.74;25.38
78206;BME280;67480;48.920;12.880;2023-05-07T12:19:37;97135.25;;;28.27;28.49
78206;BME280;67480;48.920;12.880;2023-05-07T12:22:04;97142.44;;;26.63;31.06
78206;BME280;67480;48.920;12.880;2023-05-07T12:24:56;97142.28;;;25.77;31.77
78206;BME280;67480;48.920;12.880;2023-05-07T12:27:22;97135.72;;;25.22;34.49
78206;BME280;67480;48.920;12.880;2023-05-07T12:29:48;97140.53;;;25.11;34.84
78206;BME280;67480;48.920;12.880;2023-05-07T12:32:17;97136.28;;;25.52;33.96
78206;BME280;67480;48.920;12.880;2023-05-07T12:34:43;97143.59;;;25.24;33.70
78206;BME280;67480;48.920;12.880;2023-05-07T12:37:09;97129.09;;;24.56;35.04
78206;BME280;67480;48.920;12.880;2023-05-07T12:39:35;97136.38;;;24.14;36.30
78206;BME280;67480;48.920;12.880;2023-05-07T12:42:00;97131.44;;;23.59;36.89
78206;BME280;67480;48.920;12.880;2023-05-07T12:44:30;97134.22;;;23.48;40.25
78206;BME280;67480;48.920;12.880;2023-05-07T12:46:55;97137.34;;;23.36;42.16
78206;BME280;67480;48.920;12.880;2023-05-07T12:49:21;97126.78;;;22.84;42.56
78206;BME280;67480;48.920;12.880;2023-05-07T12:51:47;97131.81;;;22.67;44.22
78206;BME280;67480;48.920;12.880;2023-05-07T12:54:14;97132.22;;;22.59;44.77
78206;BME280;67480;48.920;12.880;2023-05-07T12:57:00;97140.03;;;22.49;45.23
78206;BME280;67480;48.920;12.880;2023-05-07T12:59:41;97140.28;;;22.12;45.83
78206;BME280;67480;48.920;12.880;2023-05-07T13:02:07;97130.16;;;22.23;44.80
78206;BME280;67480;48.920;12.880;2023-05-07T13:04:33;97139.19;;;22.34;46.75